x

Buoy A01 - Mass. Bay/stellwagen (44029) Wave Buoy

7:04 - Sat 3rd Dec 2016 All times are EST. -5 hours from GMT.

  • Sig Wave height 2.6ft
  • Peak Period 3s
  • Wind
    20mph, 22mph gusts
  • Sea Temp 50°f
  • Air Temp 42°f
  • Sea Pressure 1015.2mb
  • Buoy A01 - Mass. Bay/stellwagen
  • Buoy A01 - Mass. Bay/stellwagen

More Historic Weather Station data

Upgrade to MSW Pro to gain access to the past 30 days of data for over 8000 Wavebouys and Weather Stations around the globe.

Join Pro

Comparision Forecast

View Surf forecast
   
sam. 12/03 7:04 2.5ft 3s 20 22 mph 1015.2mb 50f 42f
6:04 3ft 3s 27 31 mph 1014mb 50f 43f
5:04 2.5ft 3s 25 29 mph 1012.8mb 50f 44f
4:04 3.5ft 3s 25 29 mph 1011.9mb 50f 44f
3:04 2.5ft 4s 22 29 mph 1011mb 50f 45f
2:04 3.5ft 4s 25 34 mph 1010.2mb 50f 45f
1:04  -   -  22 29 mph 1010mb 50f 44f
12:04 3ft 3s 22 27 mph 1009.8mb 50f 45f
11:04  -   -  22 29 mph 1009.8mb 50f 44f
10:04 3ft 3s 22 27 mph 1009.8mb 50f 43f
9:04  -   -  25 31 mph 1009.3mb 50f 42f
8:04 3ft 3s 25 27 mph 1008.9mb 50f 41f
7:04 2.5ft 3s 22 27 mph 1008.5mb 50f 41f
6:04  -   -  18 22 mph 1007.8mb 50f 41f
5:04 2.5ft 3s 20 22 mph 1007.2mb 50f 42f
4:04  -   -  22 27 mph 1006.7mb 50f 42f
3:04 3.5ft 3s 25 29 mph 1006.2mb 50f 42f
2:04  -   -  20 27 mph 1006.4mb 50f 42f
1:04 4ft 4s 25 31 mph 1005.9mb 50f 42f
12:04 2.5ft 4s 22 27 mph 1005.3mb 50f 45f
ven. 12/02 11:04 2.5ft 5s 22 27 mph 1005.5mb 50f 45f
10:04 2.5ft 4s 27 31 mph 1005.5mb 50f 46f
9:04 2ft 9s 22 27 mph 1005.8mb 50f 47f
8:04 1.6ft 9s 20 25 mph 1006.3mb 50f 48f
7:04 3.5ft 3s 18 22 mph 1006.5mb 50f 48f
6:04 3.5ft 3s 16 20 mph 1006.3mb 50f 49f
5:04 3.5ft 4s 18 27 mph 1006.3mb 50f 49f
3:04 4ft 4s 18 22 mph 1005.6mb 50f 50f
2:04 3.5ft 4s 18 22 mph 1005.4mb 50f 49f
1:04 3ft 4s 20 22 mph 1005.5mb 50f 49f
12:04 2ft 10s 20 25 mph 1005.9mb 50f 48f
11:04 4.5ft 4s 22 27 mph 1006.4mb 50f 47f
10:04 4.5ft 10s 20 25 mph 1007.1mb 50f 46f
9:04  -   -  20 25 mph 1007.2mb 50f 44f
8:04 4ft 4s 18 20 mph 1007.4mb 50f 44f
7:04 4.5ft 4s 18 20 mph 1007.1mb 50f 44f
6:04 4.5ft 4s 20 25 mph 1006.8mb 50f 45f
5:04 4ft 4s 22 27 mph 1006.1mb 50f 45f
3:04 3.5ft 4s 22 27 mph 1005mb 50f 45f
2:04 3.5ft 4s 20 22 mph 1005mb 50f 45f
1:04 4.5ft 4s 25 29 mph 1004.1mb 50f 46f
12:04 5ft 4s 25 29 mph 1003.5mb 50f 46f
jeu. 12/01 11:04 4.5ft 4s 22 27 mph 1003.4mb 50f 47f
10:04 3.5ft 9s 25 29 mph 1003.1mb 50f 47f
9:04 5ft 4s 25 31 mph 1002.5mb 50f 48f
8:04 4ft 8s 25 31 mph 1002mb 50f 49f
7:04 5ft 8s 20 25 mph 1001.4mb 50f 50f
6:04 5ft 9s 20 25 mph 1001mb 51f 51f
5:04 5.5ft 8s 18 25 mph 1000.7mb 51f 51f
4:04 5.5ft 8s 25 29 mph 999.4mb 51f 52f
3:04 5ft 8s 20 25 mph 998.5mb 51f 53f
2:04 6ft 8s 18 22 mph 997.4mb 51f 54f
12:04 7ft 8s 16 20 mph 997.2mb 51f 53f
11:04 6ft 8s 16 18 mph 997.3mb 51f 51f
10:04 6ft 7s 16 20 mph 997.4mb 51f 50f
9:04 6.5ft 7s 18 20 mph 996mb 51f 49f
8:04 6ft 7s 16 20 mph 995.4mb 51f 50f
7:04 7ft 7s 18 22 mph 995.5mb 51f 52f
6:04 8ft 7s 16 20 mph 994.7mb 51f 55f
5:04 9ft 8s 20 25 mph 994.4mb 51f 54f
4:04 7ft 7s 22 27 mph 996.5mb 51f 52f
3:04 7ft 6s 25 31 mph 999.2mb 51f 51f
2:04 5.5ft 6s 25 31 mph 1002.4mb 51f 50f
1:04 5ft 6s 25 27 mph 1004.3mb 51f 50f
12:04 5.5ft 6s 22 27 mph 1006.5mb 51f 50f
mer. 11/30 11:04 5ft 6s 22 27 mph 1008.4mb 51f 50f
10:04 5ft 6s 18 22 mph 1010.9mb 51f 49f
9:04 5ft 5s 18 22 mph 1012.1mb 51f 49f
8:04 4.5ft 5s 20 25 mph 1012.6mb 51f 49f
7:04 3.5ft 5s 22 25 mph 1013mb 51f 49f
5:04 3ft 7s 16 20 mph 1015.1mb 51f 48f
4:04 3ft 4s 16 18 mph 1015mb 51f 48f
3:04 2.5ft 8s 16 18 mph 1014.7mb 51f 48f
2:04 2.5ft 9s 13 16 mph 1014.6mb 51f 48f
1:04 2ft 8s 20 22 mph 1013.8mb 51f 48f
12:04 2.5ft 4s 11 16 mph 1014.9mb 51f 48f
11:04 2.5ft 4s 9
mph
1015.2mb 51f 48f
10:04  -   -  4 7 mph 1015.8mb 51f 47f
9:04 2ft 7s 9 11 mph 1014.9mb 51f 47f
8:04 2ft 7s 13 16 mph 1013.1mb 51f 47f
7:04  -   -  2 4 mph 1014.8mb 51f 46f
6:04 2.5ft 7s 7 9 mph 1013.7mb 51f 46f
5:04 3.5ft 7s 9 11 mph 1012.8mb 51f 47f
4:04 3.5ft 8s 11 13 mph 1011.8mb 51f 47f
3:04 3.5ft 7s 9 11 mph 1011.4mb 51f 47f
2:04  -   -  11 13 mph 1010.7mb 51f 48f